Time;durP1;ratioP1;P1;durP2;ratioP2;P2;SDS_P1;SDS_P2;PMS_P1;PMS_P2;Temp;Humidity;BMP_temperature;BMP_pressure;BME280_temperature;BME280_humidity;BME280_pressure;Samples;Min_cycle;Max_cycle;Signal;HPM_P1;HPM_P2
2023/07/28 00:01:26;;;;;;;4.00;2.65;;;17.80;80.50;;;;;;4940950;28;20062;-62
2023/07/28 00:03:51;;;;;;;3.30;2.47;;;17.70;80.50;;;;;;4942453;28;20067;-61
2023/07/28 00:06:17;;;;;;;3.00;2.67;;;17.70;80.50;;;;;;4936750;28;20070;-62
2023/07/28 00:08:42;;;;;;;3.47;2.97;;;17.70;80.40;;;;;;4937937;28;20040;-63
2023/07/28 00:11:13;;;;;;;2.80;2.60;;;17.70;80.40;;;;;;4940934;28;20042;-62
2023/07/28 00:13:39;;;;;;;2.97;2.60;;;17.70;80.50;;;;;;4937681;28;20122;-62
2023/07/28 00:16:05;;;;;;;2.90;2.70;;;17.60;80.50;;;;;;4937773;28;20040;-62
2023/07/28 00:18:31;;;;;;;2.83;2.63;;;17.70;80.60;;;;;;4937516;28;20048;-61
2023/07/28 00:20:56;;;;;;;3.45;2.58;;;17.60;80.50;;;;;;4939236;28;20487;-62
2023/07/28 00:23:22;;;;;;;4.30;2.88;;;17.60;80.50;;;;;;4939908;28;20043;-62
2023/07/28 00:25:48;;;;;;;2.60;2.40;;;17.60;80.60;;;;;;4937675;28;20098;-62
2023/07/28 00:28:13;;;;;;;3.30;3.00;;;17.50;80.60;;;;;;4939238;28;20046;-62
2023/07/28 00:30:39;;;;;;;3.15;2.88;;;17.60;80.80;;;;;;4938505;28;20112;-62
2023/07/28 00:33:05;;;;;;;2.95;2.63;;;17.50;80.80;;;;;;4937822;28;20032;-62
2023/07/28 00:35:31;;;;;;;3.28;2.90;;;17.50;80.80;;;;;;4925166;28;20040;-62
2023/07/28 00:37:56;;;;;;;2.92;2.70;;;17.50;81.00;;;;;;4937478;28;20662;-62
2023/07/28 00:40:22;;;;;;;3.25;3.00;;;17.40;81.10;;;;;;4939777;28;20031;-62
2023/07/28 00:42:48;;;;;;;3.10;2.80;;;17.40;81.10;;;;;;4939369;28;20031;-62
2023/07/28 00:45:14;;;;;;;2.90;2.70;;;17.40;81.00;;;;;;4937254;28;20053;-62
2023/07/28 00:47:40;;;;;;;3.10;2.88;;;17.40;81.10;;;;;;4938561;28;20147;-62
2023/07/28 00:50:08;;;;;;;3.28;2.97;;;17.40;81.00;;;;;;4938604;28;20134;-62
2023/07/28 00:52:34;;;;;;;3.53;2.90;;;17.30;81.10;;;;;;4935353;28;20179;-62
2023/07/28 00:55:00;;;;;;;3.45;3.05;;;17.30;81.20;;;;;;4938515;28;20118;-62
2023/07/28 00:57:26;;;;;;;3.55;3.25;;;17.20;81.40;;;;;;4938502;28;20511;-62
2023/07/28 00:59:52;;;;;;;3.40;3.10;;;17.20;81.70;;;;;;4934478;28;20086;-61
2023/07/28 01:02:19;;;;;;;3.20;2.83;;;17.20;81.90;;;;;;4948546;28;20598;-60
2023/07/28 01:04:44;;;;;;;3.38;3.05;;;17.10;81.90;;;;;;4939743;28;20508;-62
2023/07/28 01:07:17;;;;;;;4.15;2.92;;;17.10;82.20;;;;;;4938744;28;21672;-60
2023/07/28 01:10:08;;;;;;;3.13;2.75;;;17.10;82.60;;;;;;4938767;28;20047;-62
2023/07/28 01:12:34;;;;;;;3.15;2.88;;;17.00;83.20;;;;;;4937567;28;20039;-62
2023/07/28 01:14:59;;;;;;;4.97;2.95;;;17.00;82.40;;;;;;4938047;28;20408;-61
2023/07/28 01:17:25;;;;;;;3.45;2.75;;;17.00;82.50;;;;;;4937716;28;20043;-62
2023/07/28 01:19:52;;;;;;;2.88;2.45;;;17.00;82.60;;;;;;4936602;28;20475;-62
2023/07/28 01:22:24;;;;;;;2.63;2.42;;;16.90;82.70;;;;;;4939344;28;20126;-62
2023/07/28 01:24:59;;;;;;;4.07;2.83;;;16.90;82.90;;;;;;4937034;28;20039;-62
2023/07/28 01:27:26;;;;;;;3.05;2.80;;;16.90;83.20;;;;;;4937170;28;20438;-60
2023/07/28 01:29:51;;;;;;;3.70;2.78;;;16.90;83.10;;;;;;4936271;28;20130;-62
2023/07/28 01:32:17;;;;;;;2.72;2.53;;;17.00;83.10;;;;;;4937964;28;20134;-62
2023/07/28 01:34:43;;;;;;;5.18;2.83;;;16.90;83.00;;;;;;4937029;28;20043;-62
2023/07/28 01:37:08;;;;;;;4.95;2.90;;;16.90;83.80;;;;;;4938540;28;20071;-60
2023/07/28 01:39:34;;;;;;;3.35;3.05;;;16.90;82.90;;;;;;4937114;29;20039;-61
2023/07/28 01:41:59;;;;;;;3.50;2.90;;;16.90;82.90;;;;;;4937491;28;20437;-62
2023/07/28 01:44:25;;;;;;;2.95;2.65;;;16.90;82.90;;;;;;4936839;28;20035;-61
2023/07/28 01:46:50;;;;;;;3.50;2.60;;;16.90;82.80;;;;;;4934727;28;20039;-62
2023/07/28 01:49:16;;;;;;;2.97;2.78;;;16.90;82.70;;;;;;4936322;28;20122;-62
2023/07/28 01:51:42;;;;;;;2.60;2.30;;;16.90;82.90;;;;;;4935832;28;20050;-62
2023/07/28 01:54:07;;;;;;;2.60;2.40;;;16.80;82.90;;;;;;4926344;29;20135;-62
2023/07/28 01:56:33;;;;;;;4.05;2.80;;;16.80;83.00;;;;;;4935064;28;20081;-62
2023/07/28 01:58:58;;;;;;;2.75;2.55;;;16.80;83.10;;;;;;4935471;28;20047;-62
2023/07/28 02:01:24;;;;;;;3.78;2.85;;;16.80;83.20;;;;;;4936272;28;20510;-61
2023/07/28 02:03:49;;;;;;;4.03;2.40;;;16.70;83.30;;;;;;4939741;28;20042;-62
2023/07/28 02:06:15;;;;;;;3.17;2.60;;;16.70;83.30;;;;;;4937947;28;20048;-61
2023/07/28 02:08:40;;;;;;;3.45;2.58;;;16.70;83.30;;;;;;4937805;28;20050;-61
2023/07/28 02:11:06;;;;;;;3.45;2.78;;;16.70;83.50;;;;;;4936652;28;20142;-62
2023/07/28 02:13:32;;;;;;;3.95;3.00;;;16.70;83.50;;;;;;4936227;28;20039;-61
2023/07/28 02:15:57;;;;;;;3.20;2.88;;;16.70;83.60;;;;;;4938162;28;20035;-61
2023/07/28 02:18:23;;;;;;;3.90;3.08;;;16.70;83.60;;;;;;4936069;28;20039;-62
2023/07/28 02:20:49;;;;;;;4.72;2.80;;;16.60;83.70;;;;;;4937419;28;20039;-62
2023/07/28 02:23:14;;;;;;;3.30;3.00;;;16.60;83.80;;;;;;4935678;28;20543;-61
2023/07/28 02:25:40;;;;;;;4.45;3.10;;;16.60;83.80;;;;;;4934613;28;20039;-61
2023/07/28 02:28:07;;;;;;;3.45;3.15;;;16.60;83.80;;;;;;4934500;28;20419;-60
2023/07/28 02:30:32;;;;;;;3.53;3.15;;;16.60;83.90;;;;;;4935232;28;20035;-60
2023/07/28 02:32:58;;;;;;;3.95;3.58;;;16.60;83.80;;;;;;4939139;28;20046;-62
2023/07/28 02:35:23;;;;;;;3.50;3.20;;;16.60;83.90;;;;;;4936919;28;20150;-62
2023/07/28 02:37:49;;;;;;;3.95;3.20;;;16.60;84.00;;;;;;4924199;28;20059;-61
2023/07/28 02:40:15;;;;;;;3.15;2.85;;;16.60;84.00;;;;;;4937625;28;20044;-62
2023/07/28 02:42:40;;;;;;;3.80;3.42;;;16.70;84.10;;;;;;4936057;28;20548;-62
2023/07/28 02:45:06;;;;;;;3.10;2.80;;;16.70;84.00;;;;;;4936385;28;20028;-62
2023/07/28 02:47:32;;;;;;;3.58;3.28;;;16.70;84.10;;;;;;4936531;28;20102;-61
2023/07/28 02:49:58;;;;;;;3.40;3.10;;;16.70;84.10;;;;;;4936436;28;20503;-61
2023/07/28 02:52:23;;;;;;;5.00;3.30;;;16.70;84.10;;;;;;4935388;28;20043;-62
2023/07/28 02:54:50;;;;;;;3.63;3.33;;;16.70;84.00;;;;;;4937463;28;20377;-62
2023/07/28 02:57:15;;;;;;;3.95;3.10;;;16.70;84.10;;;;;;4936808;28;20062;-62
2023/07/28 02:59:41;;;;;;;3.58;3.28;;;16.70;84.10;;;;;;4935328;28;20063;-62
2023/07/28 03:02:06;;;;;;;3.58;3.28;;;16.70;84.10;;;;;;4936435;28;20234;-61
2023/07/28 03:04:32;;;;;;;4.93;3.22;;;16.70;84.30;;;;;;4936808;28;20046;-62
2023/07/28 03:06:57;;;;;;;3.70;3.30;;;16.60;84.30;;;;;;4937183;28;20263;-62
2023/07/28 03:09:23;;;;;;;3.42;2.92;;;16.60;84.50;;;;;;4938209;28;20533;-62
2023/07/28 03:11:49;;;;;;;3.67;3.38;;;16.60;84.80;;;;;;4940679;28;20036;-63
2023/07/28 03:14:14;;;;;;;2.92;2.70;;;16.60;84.80;;;;;;4939804;28;20171;-62
2023/07/28 03:16:41;;;;;;;4.00;3.40;;;16.50;84.80;;;;;;4943624;28;20499;-61
2023/07/28 03:19:07;;;;;;;3.15;2.88;;;16.50;85.00;;;;;;4942017;28;20035;-62
2023/07/28 03:21:33;;;;;;;3.47;3.00;;;16.60;85.20;;;;;;4944002;28;20042;-60
2023/07/28 03:23:58;;;;;;;3.33;2.90;;;16.50;85.30;;;;;;4944141;28;20123;-61
2023/07/28 03:26:24;;;;;;;3.40;3.10;;;16.50;85.30;;;;;;4942457;28;20385;-62
2023/07/28 03:28:50;;;;;;;3.60;3.30;;;16.50;85.30;;;;;;4941268;28;20080;-62
2023/07/28 03:31:15;;;;;;;3.25;2.95;;;16.50;85.20;;;;;;4941234;28;20039;-61
2023/07/28 03:33:41;;;;;;;3.25;2.78;;;16.60;85.20;;;;;;4938142;28;20067;-61
2023/07/28 03:36:06;;;;;;;4.85;3.30;;;16.60;85.30;;;;;;4938935;28;20405;-61
2023/07/28 03:38:33;;;;;;;4.63;3.30;;;16.60;85.30;;;;;;4937602;28;20509;-62
2023/07/28 03:40:59;;;;;;;5.28;4.78;;;16.60;85.40;;;;;;4941344;28;20068;-61
2023/07/28 03:43:25;;;;;;;7.57;6.40;;;16.60;85.50;;;;;;4939436;28;20039;-62
2023/07/28 03:45:50;;;;;;;7.57;5.68;;;16.50;85.50;;;;;;4936773;28;20059;-62
2023/07/28 03:48:16;;;;;;;7.82;6.38;;;16.50;85.50;;;;;;4939832;28;20050;-60
2023/07/28 03:50:41;;;;;;;6.97;4.78;;;16.50;85.70;;;;;;4937921;28;20047;-62
2023/07/28 03:53:07;;;;;;;6.43;4.85;;;16.50;86.70;;;;;;4937069;28;20507;-62
2023/07/28 03:55:33;;;;;;;6.32;5.05;;;16.50;86.10;;;;;;4940241;28;20044;-62
2023/07/28 03:57:58;;;;;;;5.72;4.75;;;16.50;86.40;;;;;;4939281;28;20038;-61
2023/07/28 04:00:24;;;;;;;7.13;4.93;;;16.50;86.70;;;;;;4939667;28;20435;-62
2023/07/28 04:02:49;;;;;;;4.40;4.00;;;16.50;86.90;;;;;;4939390;28;20081;-62
2023/07/28 04:05:15;;;;;;;3.83;3.50;;;16.50;87.10;;;;;;4939746;28;20587;-61
2023/07/28 04:07:41;;;;;;;3.53;3.22;;;16.50;87.30;;;;;;4938255;28;20047;-62
2023/07/28 04:10:07;;;;;;;6.35;3.67;;;16.60;87.50;;;;;;4939133;28;20051;-62
2023/07/28 04:12:32;;;;;;;4.45;3.78;;;16.60;87.60;;;;;;4939155;28;20130;-61
2023/07/28 04:14:58;;;;;;;4.80;4.00;;;16.60;87.50;;;;;;4939804;28;20051;-62
2023/07/28 04:17:23;;;;;;;3.65;3.30;;;16.70;87.60;;;;;;4939290;28;20047;-60
2023/07/28 04:19:49;;;;;;;4.15;3.75;;;16.70;87.40;;;;;;4937896;28;20146;-62
2023/07/28 04:22:20;;;;;;;4.57;3.38;;;16.80;87.60;;;;;;4940035;28;20043;-62
2023/07/28 04:24:46;;;;;;;4.75;3.28;;;16.80;87.50;;;;;;4936872;28;21260;-61
2023/07/28 04:27:12;;;;;;;6.40;5.10;;;16.90;87.50;;;;;;4938658;28;20054;-61
2023/07/28 04:29:38;;;;;;;4.68;4.03;;;16.90;87.40;;;;;;4933329;28;20346;-62
2023/07/28 04:32:04;;;;;;;4.00;3.60;;;16.90;87.40;;;;;;4933325;28;20106;-61
2023/07/28 04:34:29;;;;;;;6.00;4.00;;;17.00;88.30;;;;;;4936109;28;20504;-61
2023/07/28 04:36:55;;;;;;;4.72;3.53;;;17.00;87.40;;;;;;4934354;28;20047;-61
2023/07/28 04:39:20;;;;;;;4.20;3.78;;;17.10;87.50;;;;;;4935876;28;20043;-61
2023/07/28 04:41:46;;;;;;;3.75;3.40;;;17.00;87.40;;;;;;4936145;28;20051;-61
2023/07/28 04:44:11;;;;;;;4.50;3.55;;;17.10;87.60;;;;;;4937139;28;20047;-62
2023/07/28 04:46:37;;;;;;;3.75;3.45;;;17.10;87.60;;;;;;4934693;28;20155;-62
2023/07/28 04:49:02;;;;;;;4.22;3.20;;;17.10;87.50;;;;;;4931398;28;20039;-62
2023/07/28 04:51:28;;;;;;;3.42;3.13;;;17.20;87.50;;;;;;4934905;29;20803;-61
2023/07/28 04:53:54;;;;;;;3.78;3.35;;;17.20;87.60;;;;;;4938064;28;20044;-62
2023/07/28 04:56:19;;;;;;;6.82;3.50;;;17.30;87.60;;;;;;4937806;29;20126;-62
2023/07/28 04:58:45;;;;;;;6.22;3.50;;;17.30;87.70;;;;;;4938760;28;20086;-62
2023/07/28 05:01:12;;;;;;;3.72;3.42;;;17.30;88.00;;;;;;4937545;28;20047;-60
2023/07/28 05:03:38;;;;;;;3.25;2.92;;;17.30;88.00;;;;;;4935174;29;20034;-61
2023/07/28 05:06:07;;;;;;;3.85;2.95;;;17.40;88.00;;;;;;4935847;28;20036;-61
2023/07/28 05:08:32;;;;;;;3.08;2.75;;;17.30;87.90;;;;;;4935896;28;20039;-61
2023/07/28 05:10:58;;;;;;;3.15;2.85;;;17.40;88.00;;;;;;4939370;28;20051;-62
2023/07/28 05:13:23;;;;;;;3.00;2.80;;;17.40;88.00;;;;;;4934835;28;20035;-62
2023/07/28 05:15:49;;;;;;;3.20;2.90;;;17.50;88.00;;;;;;4937604;29;20031;-62
2023/07/28 05:18:15;;;;;;;3.10;2.90;;;17.50;88.90;;;;;;4936272;28;20042;-62
2023/07/28 05:20:40;;;;;;;4.70;3.20;;;17.60;88.10;;;;;;4936060;28;20032;-62
2023/07/28 05:23:06;;;;;;;3.25;2.88;;;17.60;88.10;;;;;;4937629;28;20051;-60
2023/07/28 05:25:32;;;;;;;3.20;2.90;;;17.70;89.00;;;;;;4936306;28;20475;-61
2023/07/28 05:27:57;;;;;;;4.60;3.17;;;17.70;88.20;;;;;;4936802;28;20042;-62
2023/07/28 05:30:23;;;;;;;3.65;2.95;;;17.80;88.30;;;;;;4935698;28;20051;-62
2023/07/28 05:32:48;;;;;;;3.17;2.88;;;17.80;88.60;;;;;;4934677;28;20047;-62
2023/07/28 05:35:15;;;;;;;3.03;2.83;;;17.90;88.90;;;;;;4933285;29;20480;-61
2023/07/28 05:37:41;;;;;;;2.83;2.63;;;18.00;89.10;;;;;;4936704;28;20074;-61
2023/07/28 05:40:07;;;;;;;5.13;2.97;;;18.00;89.20;;;;;;4936399;28;20043;-61
2023/07/28 05:42:33;;;;;;;5.03;2.72;;;18.20;89.20;;;;;;4937204;28;20043;-62
2023/07/28 05:44:59;;;;;;;2.92;2.72;;;18.20;89.20;;;;;;4920992;29;20087;-62
2023/07/28 05:47:24;;;;;;;3.40;3.10;;;18.30;89.10;;;;;;4936413;28;20054;-61
2023/07/28 05:49:53;;;;;;;3.35;3.03;;;18.40;88.80;;;;;;4933685;28;20043;-61
2023/07/28 05:52:19;;;;;;;6.18;2.67;;;18.50;88.70;;;;;;4934878;28;20131;-61
2023/07/28 05:54:45;;;;;;;3.78;2.95;;;18.60;88.60;;;;;;4934785;28;20036;-62
2023/07/28 05:57:10;;;;;;;6.47;2.70;;;18.70;88.30;;;;;;4936098;28;20066;-62
2023/07/28 05:59:36;;;;;;;6.72;2.55;;;18.80;88.10;;;;;;4935854;29;20566;-61
2023/07/28 06:02:02;;;;;;;3.10;2.80;;;18.90;87.90;;;;;;4936081;28;20043;-61
2023/07/28 06:04:27;;;;;;;2.65;2.45;;;19.10;87.60;;;;;;4934116;28;20043;-60
2023/07/28 06:06:53;;;;;;;2.90;2.53;;;19.20;87.30;;;;;;4935576;28;20077;-60
2023/07/28 06:09:18;;;;;;;4.28;2.58;;;19.20;86.80;;;;;;4935262;28;20081;-61
2023/07/28 06:11:44;;;;;;;4.85;2.40;;;19.30;86.60;;;;;;4935413;28;20122;-62
2023/07/28 06:14:10;;;;;;;2.50;2.30;;;19.40;86.40;;;;;;4934755;28;20043;-62
2023/07/28 06:16:35;;;;;;;2.80;2.60;;;19.50;86.00;;;;;;4934322;28;20169;-62
2023/07/28 06:19:01;;;;;;;2.90;2.42;;;19.60;85.80;;;;;;4934913;28;20126;-62
2023/07/28 06:21:27;;;;;;;3.03;2.42;;;19.70;85.70;;;;;;4935063;28;20043;-61
2023/07/28 06:23:52;;;;;;;3.13;2.50;;;19.80;85.30;;;;;;4936897;29;20186;-62
2023/07/28 06:26:18;;;;;;;4.07;2.47;;;19.80;85.10;;;;;;4934029;28;20047;-62
2023/07/28 06:28:44;;;;;;;2.88;2.47;;;19.90;84.80;;;;;;4934708;28;20200;-60
2023/07/28 06:31:10;;;;;;;3.22;2.40;;;20.00;84.50;;;;;;4936658;28;20039;-62
2023/07/28 06:33:36;;;;;;;3.70;2.40;;;20.00;84.30;;;;;;4937624;28;20042;-62
2023/07/28 06:36:02;;;;;;;2.58;2.22;;;20.10;83.90;;;;;;4940262;28;20686;-62
2023/07/28 06:38:28;;;;;;;2.63;2.42;;;20.20;83.60;;;;;;4936366;28;20056;-61
2023/07/28 06:40:54;;;;;;;6.55;2.30;;;20.20;83.40;;;;;;4938776;28;20553;-62
2023/07/28 06:43:19;;;;;;;3.83;2.40;;;20.20;83.10;;;;;;4937922;29;20027;-61
2023/07/28 06:45:45;;;;;;;2.88;2.40;;;20.30;82.60;;;;;;4939397;28;20032;-62
2023/07/28 06:48:10;;;;;;;4.30;2.50;;;20.40;82.60;;;;;;4939807;28;20077;-60
2023/07/28 06:50:36;;;;;;;3.30;2.40;;;20.40;82.40;;;;;;4940649;28;20039;-62
2023/07/28 06:53:02;;;;;;;2.95;2.55;;;20.40;82.40;;;;;;4941073;28;20035;-60
2023/07/28 06:55:28;;;;;;;3.58;2.40;;;20.50;82.40;;;;;;4941422;28;20040;-62
2023/07/28 06:57:53;;;;;;;3.38;2.50;;;20.50;82.10;;;;;;4942024;28;20419;-62
2023/07/28 07:00:19;;;;;;;3.42;2.47;;;20.60;82.20;;;;;;4939718;28;20027;-61
2023/07/28 07:02:45;;;;;;;6.63;2.53;;;20.60;82.20;;;;;;4939893;28;20134;-62
2023/07/28 07:05:11;;;;;;;2.58;2.38;;;20.70;81.90;;;;;;4940848;28;20047;-61
2023/07/28 07:07:37;;;;;;;2.60;2.28;;;20.70;81.90;;;;;;4939762;28;20541;-62
2023/07/28 07:10:03;;;;;;;3.10;2.13;;;20.80;82.10;;;;;;4940771;28;20097;-62
2023/07/28 07:12:28;;;;;;;2.60;2.40;;;20.90;82.10;;;;;;4937647;28;20044;-62
2023/07/28 07:14:54;;;;;;;2.20;2.08;;;21.00;81.90;;;;;;4941128;28;20430;-62
2023/07/28 07:17:19;;;;;;;2.50;2.15;;;21.10;81.40;;;;;;4941227;28;20419;-60
2023/07/28 07:19:45;;;;;;;3.05;2.10;;;21.20;81.20;;;;;;4940816;28;20047;-61
2023/07/28 07:22:11;;;;;;;2.33;2.00;;;21.30;81.10;;;;;;4940087;28;20048;-61
2023/07/28 07:24:36;;;;;;;2.70;2.50;;;21.30;81.30;;;;;;4940334;28;20071;-62
2023/07/28 07:27:02;;;;;;;3.45;2.40;;;21.40;81.30;;;;;;4942077;29;20050;-62
2023/07/28 07:29:27;;;;;;;2.28;2.08;;;21.40;80.90;;;;;;4942003;28;20054;-62
2023/07/28 07:31:55;;;;;;;2.65;2.30;;;21.40;81.00;;;;;;4941253;29;20106;-61
2023/07/28 07:34:22;;;;;;;3.50;2.10;;;21.50;81.70;;;;;;4939046;28;20066;-62
2023/07/28 07:36:47;;;;;;;3.03;2.13;;;21.50;81.00;;;;;;4939297;28;20407;-62
2023/07/28 07:39:13;;;;;;;3.17;2.50;;;21.50;81.30;;;;;;4940744;28;20055;-61
2023/07/28 07:41:39;;;;;;;2.78;2.25;;;21.50;81.50;;;;;;4922716;29;20118;-60
2023/07/28 07:44:05;;;;;;;2.50;2.22;;;21.50;81.50;;;;;;4939830;28;20069;-62
2023/07/28 07:46:30;;;;;;;3.83;2.70;;;21.50;81.60;;;;;;4939499;28;20035;-61
2023/07/28 07:48:56;;;;;;;4.38;2.38;;;21.50;81.90;;;;;;4940806;28;20628;-61
2023/07/28 07:51:21;;;;;;;4.95;2.35;;;21.60;82.00;;;;;;4941135;28;20043;-61
2023/07/28 07:53:47;;;;;;;2.30;2.10;;;21.60;82.10;;;;;;4938869;28;20054;-63
2023/07/28 07:56:12;;;;;;;3.25;2.10;;;21.70;82.30;;;;;;4940734;28;20035;-62
2023/07/28 07:58:38;;;;;;;2.40;2.20;;;21.70;82.30;;;;;;4936685;28;20043;-61
2023/07/28 08:01:04;;;;;;;3.35;2.35;;;21.70;82.60;;;;;;4940324;28;20304;-62
2023/07/28 08:03:30;;;;;;;3.53;2.33;;;21.70;82.90;;;;;;4938576;28;20032;-62
2023/07/28 08:05:55;;;;;;;3.42;1.98;;;21.80;83.30;;;;;;4941107;28;20118;-61
2023/07/28 08:08:21;;;;;;;2.35;2.00;;;21.80;83.30;;;;;;4939555;28;20035;-60
2023/07/28 08:10:47;;;;;;;1.90;1.80;;;21.90;83.30;;;;;;4939594;28;20035;-61
2023/07/28 08:13:13;;;;;;;3.00;1.73;;;22.00;82.20;;;;;;4940424;28;20031;-62
2023/07/28 08:15:39;;;;;;;2.00;1.80;;;22.10;81.30;;;;;;4940618;28;20025;-61
2023/07/28 08:18:04;;;;;;;2.17;1.90;;;22.20;80.70;;;;;;4940949;28;20094;-62
2023/07/28 08:20:30;;;;;;;3.53;1.80;;;22.20;80.40;;;;;;4941064;28;20043;-61
2023/07/28 08:22:56;;;;;;;1.98;1.80;;;22.30;80.00;;;;;;4940360;28;20459;-60
2023/07/28 08:25:23;;;;;;;1.90;1.73;;;22.40;80.00;;;;;;4939650;28;20142;-61
2023/07/28 08:27:49;;;;;;;2.33;1.60;;;22.40;79.30;;;;;;4941875;28;20415;-61
2023/07/28 08:30:15;;;;;;;1.92;1.60;;;22.50;78.60;;;;;;4940663;28;20058;-62
2023/07/28 08:32:41;;;;;;;4.07;1.90;;;22.50;78.40;;;;;;4939495;28;20051;-62
2023/07/28 08:35:08;;;;;;;8.43;2.33;;;22.50;78.10;;;;;;4940244;28;20050;-61
2023/07/28 08:37:33;;;;;;;2.03;1.77;;;22.50;77.70;;;;;;4939940;28;20518;-61
2023/07/28 08:39:59;;;;;;;2.50;1.90;;;22.50;77.70;;;;;;4940352;29;20051;-60
2023/07/28 08:42:25;;;;;;;2.83;1.67;;;22.60;77.70;;;;;;4939674;28;20153;-61
2023/07/28 08:44:52;;;;;;;3.75;1.85;;;22.60;77.70;;;;;;4935660;28;20062;-62
2023/07/28 08:47:18;;;;;;;2.15;1.70;;;22.70;77.60;;;;;;4938930;28;20039;-63
2023/07/28 08:49:44;;;;;;;2.47;1.65;;;22.70;77.50;;;;;;4939634;28;20048;-62
2023/07/28 08:52:10;;;;;;;2.10;1.90;;;22.70;77.80;;;;;;4936760;28;20053;-62
2023/07/28 08:54:35;;;;;;;3.78;1.58;;;22.70;76.80;;;;;;4937160;28;20043;-62
2023/07/28 08:57:01;;;;;;;1.92;1.80;;;22.70;77.00;;;;;;4939706;28;20066;-62
2023/07/28 08:59:29;;;;;;;5.32;1.90;;;22.70;76.80;;;;;;4938242;28;20372;-61
2023/07/28 09:01:58;;;;;;;1.75;1.63;;;22.70;76.50;;;;;;4939986;28;20055;-61
2023/07/28 09:04:24;;;;;;;1.98;1.88;;;22.70;76.30;;;;;;4940521;28;20542;-62
2023/07/28 09:06:50;;;;;;;2.00;1.90;;;22.80;76.00;;;;;;4923652;29;20194;-61
2023/07/28 09:09:17;;;;;;;2.15;1.80;;;22.80;76.30;;;;;;4938327;28;20098;-60
2023/07/28 09:11:46;;;;;;;1.90;1.80;;;22.80;76.10;;;;;;4939381;28;20123;-62
2023/07/28 09:14:13;;;;;;;2.03;1.77;;;22.80;76.80;;;;;;4937999;28;20050;-62
2023/07/28 09:16:39;;;;;;;2.75;1.50;;;22.80;76.00;;;;;;4937064;28;20142;-61
2023/07/28 09:19:06;;;;;;;1.77;1.67;;;22.90;76.20;;;;;;4939584;28;20047;-61
2023/07/28 09:21:32;;;;;;;2.33;1.92;;;23.00;75.80;;;;;;4940776;28;20043;-62
2023/07/28 09:24:04;;;;;;;7.13;1.88;;;23.00;75.30;;;;;;4941264;28;20110;-61
2023/07/28 09:26:45;;;;;;;1.92;1.83;;;23.10;74.70;;;;;;4938524;28;20049;-62
2023/07/28 09:29:15;;;;;;;1.70;1.60;;;23.10;73.90;;;;;;4939691;28;20043;-62
2023/07/28 09:31:41;;;;;;;2.20;2.00;;;23.20;74.90;;;;;;4938610;28;20102;-62
2023/07/28 09:34:08;;;;;;;2.30;2.10;;;23.40;75.30;;;;;;4939380;28;20074;-63
2023/07/28 09:36:35;;;;;;;1.65;1.55;;;23.50;74.30;;;;;;4940471;28;20106;-62
2023/07/28 09:39:02;;;;;;;2.50;1.73;;;23.60;74.10;;;;;;4943503;28;20101;-62
2023/07/28 09:41:30;;;;;;;2.05;1.75;;;23.70;74.00;;;;;;4942283;28;20039;-62
2023/07/28 09:43:56;;;;;;;1.88;1.50;;;23.80;73.00;;;;;;4941064;29;20074;-62
2023/07/28 09:46:24;;;;;;;1.98;1.88;;;23.90;72.30;;;;;;4937051;28;20499;-62
2023/07/28 09:48:55;;;;;;;3.10;1.88;;;24.00;72.60;;;;;;4938081;28;20522;-61
2023/07/28 09:51:26;;;;;;;2.33;1.60;;;24.10;71.60;;;;;;4938086;28;20038;-62
2023/07/28 09:53:58;;;;;;;2.85;1.80;;;24.20;71.10;;;;;;4940248;28;20051;-60
2023/07/28 09:56:29;;;;;;;1.70;1.48;;;24.30;70.10;;;;;;4941093;28;20036;-62
2023/07/28 09:58:57;;;;;;;2.13;1.90;;;24.40;70.50;;;;;;4936780;28;20115;-63
2023/07/28 10:01:23;;;;;;;2.72;1.83;;;24.50;69.90;;;;;;4936279;28;20047;-63
2023/07/28 10:03:49;;;;;;;1.90;1.80;;;24.60;69.80;;;;;;4938110;28;20078;-62
2023/07/28 10:06:19;;;;;;;1.60;1.50;;;24.70;69.60;;;;;;4938951;28;20131;-63
2023/07/28 10:08:45;;;;;;;1.75;1.65;;;24.80;68.90;;;;;;4919843;28;20043;-63
2023/07/28 10:11:16;;;;;;;1.80;1.70;;;24.80;68.50;;;;;;4941159;28;20031;-63
2023/07/28 10:13:44;;;;;;;1.83;1.73;;;24.90;67.70;;;;;;4940160;28;20039;-63
2023/07/28 10:16:10;;;;;;;6.10;1.92;;;25.00;67.50;;;;;;4938965;29;20111;-62
2023/07/28 10:18:36;;;;;;;3.20;1.85;;;25.10;67.60;;;;;;4937920;28;20048;-62
2023/07/28 10:21:20;;;;;;;1.80;1.70;;;25.10;67.20;;;;;;4939003;28;20039;-63
2023/07/28 10:23:54;;;;;;;1.70;1.60;;;25.20;66.80;;;;;;4939308;29;20578;-62
2023/07/28 10:26:34;;;;;;;1.75;1.65;;;25.20;66.70;;;;;;4938066;28;20050;-62
2023/07/28 10:29:10;;;;;;;1.83;1.73;;;25.30;65.60;;;;;;4939219;28;20039;-62
2023/07/28 10:31:36;;;;;;;1.80;1.70;;;25.50;66.30;;;;;;4939382;29;20413;-63
2023/07/28 10:34:03;;;;;;;1.67;1.58;;;25.50;66.70;;;;;;4939022;29;20040;-63
2023/07/28 10:36:28;;;;;;;4.03;1.80;;;25.60;66.30;;;;;;4937736;28;20035;-63
2023/07/28 10:39:07;;;;;;;1.63;1.52;;;25.70;66.60;;;;;;4938011;28;20526;-62
2023/07/28 10:41:35;;;;;;;2.88;1.70;;;25.80;65.20;;;;;;4936977;28;20056;-62
2023/07/28 10:44:02;;;;;;;3.35;1.73;;;25.80;65.90;;;;;;4936012;28;20066;-63
2023/07/28 10:46:27;;;;;;;1.70;1.60;;;25.90;66.00;;;;;;4936984;28;20674;-62
2023/07/28 10:48:53;;;;;;;3.92;1.45;;;26.00;65.60;;;;;;4936382;28;20047;-62
2023/07/28 10:51:24;;;;;;;2.42;1.98;;;26.10;65.50;;;;;;4936809;28;20051;-61
2023/07/28 10:53:51;;;;;;;2.22;1.92;;;26.10;64.50;;;;;;4939158;28;20510;-61
2023/07/28 10:56:18;;;;;;;2.22;2.00;;;26.10;64.30;;;;;;4937002;28;20047;-61
2023/07/28 10:58:44;;;;;;;2.42;1.90;;;26.10;64.00;;;;;;4936626;28;20060;-62
2023/07/28 11:01:10;;;;;;;1.98;1.88;;;26.10;64.10;;;;;;4937836;28;20134;-62
2023/07/28 11:03:36;;;;;;;1.90;1.80;;;26.10;64.00;;;;;;4938419;28;20047;-63
2023/07/28 11:06:03;;;;;;;3.38;1.90;;;26.10;63.60;;;;;;4938645;28;20042;-62
2023/07/28 11:08:29;;;;;;;2.03;1.83;;;26.10;63.20;;;;;;4936983;28;20042;-62
2023/07/28 11:10:55;;;;;;;2.28;2.08;;;26.10;64.00;;;;;;4938930;28;21445;-62
2023/07/28 11:13:22;;;;;;;2.10;1.90;;;26.10;64.10;;;;;;4940934;28;20495;-62
2023/07/28 11:15:48;;;;;;;1.73;1.63;;;26.20;63.90;;;;;;4940501;29;20036;-62
2023/07/28 11:18:16;;;;;;;2.63;2.08;;;26.20;63.50;;;;;;4940359;28;20035;-62
2023/07/28 11:20:41;;;;;;;2.55;2.08;;;26.20;62.60;;;;;;4940973;28;20031;-62
2023/07/28 11:23:08;;;;;;;3.05;1.70;;;26.20;62.30;;;;;;4936267;28;20039;-63
2023/07/28 11:25:34;;;;;;;1.70;1.60;;;26.10;62.10;;;;;;4938196;28;20408;-62
2023/07/28 11:28:07;;;;;;;1.75;1.65;;;26.20;62.50;;;;;;4935865;28;20030;-62
2023/07/28 11:30:37;;;;;;;1.88;1.77;;;26.20;62.80;;;;;;4935669;28;20072;-62
2023/07/28 11:33:03;;;;;;;1.90;1.60;;;26.10;62.40;;;;;;4939821;29;20074;-62
2023/07/28 11:35:28;;;;;;;1.95;1.85;;;26.10;62.80;;;;;;4940373;29;20119;-62
2023/07/28 11:37:55;;;;;;;1.65;1.55;;;26.10;62.60;;;;;;4940157;28;20043;-63
2023/07/28 11:40:22;;;;;;;2.08;1.58;;;26.20;62.10;;;;;;4940409;29;20384;-61
2023/07/28 11:42:49;;;;;;;2.42;1.60;;;26.20;62.40;;;;;;4936934;28;20043;-63
2023/07/28 11:45:18;;;;;;;2.88;2.10;;;26.20;62.30;;;;;;4941219;28;20404;-62
2023/07/28 11:48:03;;;;;;;1.83;1.60;;;26.20;61.70;;;;;;4943188;28;20031;-62
2023/07/28 11:50:40;;;;;;;1.77;1.67;;;26.20;61.30;;;;;;4941623;28;20038;-62
2023/07/28 11:53:06;;;;;;;1.95;1.75;;;26.20;61.70;;;;;;4944101;28;20038;-62
2023/07/28 11:55:34;;;;;;;1.77;1.58;;;26.20;61.70;;;;;;4942459;28;20031;-63
2023/07/28 11:58:04;;;;;;;2.00;1.70;;;26.20;61.50;;;;;;4941827;28;20043;-63
2023/07/28 12:00:34;;;;;;;2.00;1.80;;;26.20;61.50;;;;;;4939494;28;20040;-63
2023/07/28 12:03:12;;;;;;;2.10;1.80;;;26.20;62.10;;;;;;4942608;28;20410;-60
2023/07/28 12:05:58;;;;;;;1.80;1.70;;;26.30;61.90;;;;;;4942793;28;20039;-63
2023/07/28 12:08:39;;;;;;;1.85;1.75;;;26.30;61.60;;;;;;4941452;28;20050;-61
2023/07/28 12:11:06;;;;;;;3.28;1.90;;;26.30;61.10;;;;;;4938272;28;20039;-63
2023/07/28 12:13:32;;;;;;;1.90;1.80;;;26.30;61.10;;;;;;4941135;28;20035;-62
2023/07/28 12:15:57;;;;;;;1.80;1.70;;;26.40;61.50;;;;;;4937582;28;20035;-62
2023/07/28 12:18:30;;;;;;;1.70;1.60;;;26.40;61.20;;;;;;4940017;28;20046;-63
2023/07/28 12:20:55;;;;;;;4.07;1.67;;;26.50;59.40;;;;;;4941147;28;20087;-62
2023/07/28 12:23:22;;;;;;;1.70;1.60;;;26.40;60.10;;;;;;4939192;28;20043;-62
2023/07/28 12:25:50;;;;;;;2.97;1.73;;;26.40;59.80;;;;;;4940279;28;20057;-61
2023/07/28 12:28:16;;;;;;;1.70;1.60;;;26.40;59.20;;;;;;4938219;29;20106;-63
2023/07/28 12:30:41;;;;;;;1.65;1.52;;;26.40;59.00;;;;;;4940119;28;20504;-62
2023/07/28 12:33:07;;;;;;;1.95;1.77;;;26.40;59.20;;;;;;4940945;28;20036;-63
2023/07/28 12:35:34;;;;;;;3.33;1.60;;;26.40;58.60;;;;;;4941341;28;20035;-62
2023/07/28 12:38:04;;;;;;;2.45;1.85;;;26.40;58.70;;;;;;4939446;28;20051;-62
2023/07/28 12:40:31;;;;;;;2.60;1.52;;;26.40;58.80;;;;;;4937966;28;20134;-62
2023/07/28 12:42:57;;;;;;;1.63;1.52;;;26.40;59.00;;;;;;4939759;28;20420;-62
2023/07/28 12:45:25;;;;;;;1.80;1.70;;;26.30;58.30;;;;;;4938560;28;20036;-62